Time;durP1;ratioP1;P1;durP2;ratioP2;P2;SDS_P1;SDS_P2;PMS_P1;PMS_P2;Temp;Humidity;BMP_temperature;BMP_pressure;BME280_temperature;BME280_humidity;BME280_pressure;Samples;Min_cycle;Max_cycle;Signal;HPM_P1;HPM_P2
2023/10/11 05:52:59;;;;;;;10.82;4.47;;;;;;;;;;10502749;28;20060;-86
2023/10/11 05:58:34;;;;;;;8.90;4.45;;;;;;;;;;10488552;22;20140;-86
2023/10/11 06:03:55;;;;;;;9.55;4.45;;;;;;;;;;10359082;28;20030;-86
2023/10/11 06:09:27;;;;;;;10.55;4.60;;;;;;;;;;10373753;28;20049;-86
2023/10/11 07:06:10;;;;;;;4.88;3.60;;;;;;;;;;10347352;28;20066;-86
2023/10/11 07:17:32;;;;;;;7.20;4.30;;;;;;;;;;10278571;28;20045;-83
2023/10/11 07:22:42;;;;;;;6.40;3.80;;;;;;;;;;10350009;28;20149;-81
2023/10/11 07:27:44;;;;;;;10.32;4.40;;;;;;;;;;10350037;28;20026;-81
2023/10/11 07:32:47;;;;;;;6.55;3.95;;;;;;;;;;10348381;28;20031;-80
2023/10/11 07:49:01;;;;;;;7.33;4.13;;;;;;;;;;10349599;28;20038;-81
2023/10/11 08:00:18;;;;;;;8.60;4.18;;;;;;;;;;10384091;28;20116;-81
2023/10/11 08:05:25;;;;;;;10.73;4.63;;;;;;;;;;10382334;28;20591;-81
2023/10/11 08:10:36;;;;;;;8.60;4.43;;;;;;;;;;10384157;28;20276;-81
2023/10/11 08:15:45;;;;;;;7.30;4.25;;;;;;;;;;10384303;28;20051;-84
2023/10/11 08:21:06;;;;;;;7.80;4.55;;;;;;;;;;10424439;28;20029;-84
2023/10/11 08:26:17;;;;;;;9.05;5.18;;;;;;;;;;10364384;28;20034;-84
2023/10/11 08:31:35;;;;;;;6.97;4.00;;;;;;;;;;10351302;28;20042;-83
2023/10/11 08:36:43;;;;;;;9.75;4.40;;;;;;;;;;10347141;28;20062;-86
2023/10/11 08:42:17;;;;;;;8.13;4.90;;;;;;;;;;10347642;28;20022;-84
2023/10/11 08:47:25;;;;;;;8.82;5.15;;;;;;;;;;10356200;28;20026;-82
2023/10/11 08:52:30;;;;;;;8.05;4.80;;;;;;;;;;10368885;28;20031;-83
2023/10/11 08:57:33;;;;;;;10.23;4.75;;;;;;;;;;10342059;28;20026;-83
2023/10/11 09:03:17;;;;;;;7.28;4.25;;;;;;;;;;10346371;28;20048;-84
2023/10/11 09:08:47;;;;;;;12.00;5.25;;;;;;;;;;10346550;28;20031;-83
2023/10/11 09:13:50;;;;;;;8.75;5.25;;;;;;;;;;10347628;28;20031;-83
2023/10/11 09:19:36;;;;;;;9.48;4.88;;;;;;;;;;10348494;28;20033;-83
2023/10/11 09:24:44;;;;;;;9.05;4.80;;;;;;;;;;10341912;28;20039;-83
2023/10/11 09:29:49;;;;;;;9.63;5.25;;;;;;;;;;10346327;28;20027;-84
2023/10/11 09:34:51;;;;;;;8.32;4.85;;;;;;;;;;10342049;28;20053;-85
2023/10/11 09:40:18;;;;;;;8.35;4.68;;;;;;;;;;10337846;28;20054;-85
2023/10/11 09:45:28;;;;;;;11.40;4.90;;;;;;;;;;10340062;28;20037;-85
2023/10/11 09:50:57;;;;;;;9.77;4.80;;;;;;;;;;10344101;28;20034;-84
2023/10/11 09:56:30;;;;;;;8.17;4.67;;;;;;;;;;10330668;28;20031;-84
2023/10/11 10:01:41;;;;;;;10.18;4.90;;;;;;;;;;10348777;28;20094;-85
2023/10/11 10:07:03;;;;;;;8.82;4.97;;;;;;;;;;10345647;28;20133;-84
2023/10/11 10:17:31;;;;;;;10.77;4.40;;;;;;;;;;10342647;28;20046;-80
2023/10/11 10:22:33;;;;;;;11.75;5.15;;;;;;;;;;10340487;28;20034;-81
2023/10/11 10:27:34;;;;;;;13.27;4.72;;;;;;;;;;10329410;28;20030;-81
2023/10/11 10:32:36;;;;;;;14.00;5.55;;;;;;;;;;10355839;28;20385;-86
2023/10/11 10:38:11;;;;;;;10.48;4.70;;;;;;;;;;10354522;28;20030;-85
2023/10/11 10:43:20;;;;;;;13.80;5.15;;;;;;;;;;10332438;28;20490;-86
2023/10/11 10:48:48;;;;;;;8.50;5.40;;;;;;;;;;10355173;28;20474;-85
2023/10/11 10:53:53;;;;;;;7.88;4.55;;;;;;;;;;10353820;28;20057;-85
2023/10/11 10:59:11;;;;;;;12.38;5.25;;;;;;;;;;10351640;28;20109;-85
2023/10/11 11:04:13;;;;;;;9.07;4.57;;;;;;;;;;10347355;28;20127;-84
2023/10/11 11:09:27;;;;;;;11.20;5.18;;;;;;;;;;10348093;28;20030;-83
2023/10/11 11:14:30;;;;;;;13.60;5.22;;;;;;;;;;10345478;28;20128;-80
2023/10/11 11:19:34;;;;;;;18.10;5.30;;;;;;;;;;10347821;28;20040;-83
2023/10/11 11:24:35;;;;;;;14.07;5.60;;;;;;;;;;10347279;28;20034;-80
2023/10/11 11:29:36;;;;;;;13.07;5.10;;;;;;;;;;10351723;28;20026;-84
2023/10/11 11:34:38;;;;;;;14.13;5.35;;;;;;;;;;10350534;28;20031;-79
2023/10/11 11:39:48;;;;;;;25.10;5.25;;;;;;;;;;10350580;28;20015;-83
2023/10/11 11:44:49;;;;;;;11.55;5.18;;;;;;;;;;10367856;28;20050;-82
2023/10/11 11:49:53;;;;;;;12.05;5.10;;;;;;;;;;10385635;28;20102;-81
2023/10/11 11:54:54;;;;;;;12.18;5.38;;;;;;;;;;10381235;28;20089;-84
2023/10/11 11:59:55;;;;;;;10.20;4.70;;;;;;;;;;10434280;23;20049;-79
2023/10/11 12:04:56;;;;;;;10.55;5.88;;;;;;;;;;10394599;28;20076;-80
2023/10/11 12:09:57;;;;;;;9.73;4.88;;;;;;;;;;10391853;28;20065;-80
2023/10/11 12:14:59;;;;;;;12.82;5.75;;;;;;;;;;10391358;28;20064;-80
2023/10/11 12:20:00;;;;;;;10.65;4.50;;;;;;;;;;10390717;28;20029;-79
2023/10/11 12:25:07;;;;;;;13.10;5.50;;;;;;;;;;10392383;28;20033;-80
2023/10/11 12:30:22;;;;;;;14.93;6.30;;;;;;;;;;10389017;28;20028;-80
2023/10/11 12:35:23;;;;;;;12.75;5.72;;;;;;;;;;10388968;28;20101;-80
2023/10/11 12:40:24;;;;;;;9.07;5.72;;;;;;;;;;10387853;28;20030;-80
2023/10/11 12:45:25;;;;;;;10.07;5.45;;;;;;;;;;10390225;28;20026;-81
2023/10/11 12:50:26;;;;;;;10.30;5.28;;;;;;;;;;10388957;28;20094;-82
2023/10/11 12:55:27;;;;;;;15.20;5.00;;;;;;;;;;10387772;28;20585;-80
2023/10/11 13:00:31;;;;;;;10.45;4.50;;;;;;;;;;10390143;28;20033;-82
2023/10/11 13:05:32;;;;;;;9.85;4.78;;;;;;;;;;10400169;28;20030;-82
2023/10/11 13:10:35;;;;;;;9.82;4.60;;;;;;;;;;10388114;28;20109;-81
2023/10/11 13:15:39;;;;;;;13.05;4.93;;;;;;;;;;10386072;28;20401;-81
2023/10/11 13:20:41;;;;;;;12.52;4.75;;;;;;;;;;10386814;28;20109;-82
2023/10/11 13:25:44;;;;;;;13.00;4.75;;;;;;;;;;10386412;28;20108;-82
2023/10/11 13:30:47;;;;;;;8.55;4.63;;;;;;;;;;10386428;28;20108;-80
2023/10/11 13:35:49;;;;;;;9.20;4.38;;;;;;;;;;10384501;28;20496;-80
2023/10/11 13:40:52;;;;;;;13.18;4.38;;;;;;;;;;10384300;28;20018;-81
2023/10/11 13:45:56;;;;;;;13.73;4.47;;;;;;;;;;10383569;28;20030;-82
2023/10/11 13:50:58;;;;;;;12.27;5.22;;;;;;;;;;10383558;28;20036;-80
2023/10/11 13:56:10;;;;;;;7.75;4.57;;;;;;;;;;10382789;28;20369;-81
2023/10/11 14:06:37;;;;;;;10.70;4.20;;;;;;;;;;10392036;28;20045;-82
2023/10/11 14:11:42;;;;;;;9.80;4.47;;;;;;;;;;10392500;28;20049;-82
2023/10/11 14:16:43;;;;;;;9.90;4.70;;;;;;;;;;10390091;28;20026;-82
2023/10/11 14:21:48;;;;;;;13.93;4.60;;;;;;;;;;10390367;28;20434;-81
2023/10/11 14:26:49;;;;;;;8.27;4.40;;;;;;;;;;10390810;28;20030;-80
2023/10/11 14:31:51;;;;;;;10.05;4.25;;;;;;;;;;10394161;28;20101;-80
2023/10/11 14:36:52;;;;;;;8.65;4.00;;;;;;;;;;10396265;28;20026;-82
2023/10/11 14:41:55;;;;;;;11.43;4.95;;;;;;;;;;10391979;28;20061;-81
2023/10/11 14:46:56;;;;;;;11.60;5.43;;;;;;;;;;10390880;28;20470;-81
2023/10/11 14:51:57;;;;;;;12.68;5.07;;;;;;;;;;10391838;28;20117;-84
2023/10/11 14:57:00;;;;;;;16.33;5.00;;;;;;;;;;10392334;28;20126;-83
2023/10/11 15:02:05;;;;;;;14.18;5.03;;;;;;;;;;10395583;28;20026;-84
2023/10/11 15:07:06;;;;;;;14.07;5.15;;;;;;;;;;10402567;28;20371;-84
2023/10/11 15:12:08;;;;;;;9.88;5.05;;;;;;;;;;10399506;28;20050;-84
2023/10/11 15:17:11;;;;;;;12.32;5.50;;;;;;;;;;10388333;28;20028;-84
2023/10/11 15:22:13;;;;;;;9.73;5.40;;;;;;;;;;10388418;28;20045;-83
2023/10/11 15:27:14;;;;;;;13.15;7.15;;;;;;;;;;10395263;28;20026;-83
2023/10/11 15:32:17;;;;;;;10.20;5.57;;;;;;;;;;10390540;28;20044;-84
2023/10/11 15:37:18;;;;;;;9.95;4.95;;;;;;;;;;10390671;28;20481;-86
2023/10/11 15:42:27;;;;;;;9.27;4.93;;;;;;;;;;10390179;28;20044;-85
2023/10/11 15:47:35;;;;;;;10.30;5.03;;;;;;;;;;10394854;28;20486;-85
2023/10/11 15:52:36;;;;;;;10.90;4.70;;;;;;;;;;10393515;28;20112;-85
2023/10/11 15:57:37;;;;;;;10.68;5.00;;;;;;;;;;10393202;28;20034;-85
2023/10/11 16:02:44;;;;;;;8.70;4.85;;;;;;;;;;10399087;28;20139;-86
2023/10/11 16:07:46;;;;;;;11.38;4.88;;;;;;;;;;10405414;28;20045;-84
2023/10/11 16:12:47;;;;;;;8.18;4.65;;;;;;;;;;10401539;28;20057;-85
2023/10/11 16:17:48;;;;;;;10.35;4.45;;;;;;;;;;10387705;28;20442;-85
2023/10/11 16:22:49;;;;;;;9.88;4.18;;;;;;;;;;10398580;28;20040;-84
2023/10/11 16:27:50;;;;;;;11.02;4.53;;;;;;;;;;10388160;28;20030;-84
2023/10/11 16:32:54;;;;;;;12.73;5.00;;;;;;;;;;10392208;28;20026;-83
2023/10/11 16:37:57;;;;;;;12.15;5.28;;;;;;;;;;10389286;28;20072;-82
2023/10/11 16:43:02;;;;;;;11.18;4.93;;;;;;;;;;10388875;28;20552;-86
2023/10/11 16:48:38;;;;;;;10.25;4.65;;;;;;;;;;10392259;28;20524;-85
2023/10/11 16:54:10;;;;;;;12.95;8.68;;;;;;;;;;10391073;28;20061;-85
2023/10/11 17:16:57;;;;;;;10.73;5.10;;;;;;;;;;10492372;28;20032;-86
2023/10/11 17:28:37;;;;;;;11.70;6.13;;;;;;;;;;10479581;28;20040;-85
2023/10/11 17:51:36;;;;;;;12.45;5.07;;;;;;;;;;10400241;28;20018;-85
2023/10/11 18:02:43;;;;;;;11.52;4.72;;;;;;;;;;10549686;22;20094;-88
2023/10/11 18:07:51;;;;;;;9.10;4.00;;;;;;;;;;10540546;28;20055;-89
2023/10/11 18:13:04;;;;;;;11.82;4.00;;;;;;;;;;10542106;28;20024;-88
2023/10/11 18:18:08;;;;;;;16.70;4.13;;;;;;;;;;10543065;28;20047;-88
2023/10/11 18:23:27;;;;;;;9.18;4.00;;;;;;;;;;10545293;28;20487;-88
2023/10/11 18:28:32;;;;;;;9.80;3.72;;;;;;;;;;10541878;28;20023;-88
2023/10/11 18:33:34;;;;;;;8.32;4.03;;;;;;;;;;10541787;28;20020;-88
2023/10/11 18:38:35;;;;;;;8.85;3.67;;;;;;;;;;10540651;28;20039;-89
2023/10/11 18:43:38;;;;;;;8.00;3.85;;;;;;;;;;10540283;28;20510;-88
2023/10/11 18:48:40;;;;;;;7.78;3.83;;;;;;;;;;10542253;28;20089;-88
2023/10/11 18:53:45;;;;;;;8.20;3.80;;;;;;;;;;10544924;28;20024;-88
2023/10/11 18:58:48;;;;;;;8.15;3.88;;;;;;;;;;10547121;28;20051;-88
2023/10/11 19:03:49;;;;;;;8.85;3.67;;;;;;;;;;10545054;28;20039;-88
2023/10/11 19:08:51;;;;;;;6.88;3.60;;;;;;;;;;10545884;28;20503;-87
